Aspen Park, Colorado
Current Conditions -  °F | °C
As of 10:53 PM on Thursday 30 Oct 2014 (Local Time) from KAPA Reporting Station
Few Clouds Few Clouds  
Wind Chill: 36°   Ceiling: Unl
Heat Index: 43°   Visibility: 10mi
Dew Point: 26°   Wind: 14mph
Humidity: 51%   Direction: 150°SSE
Pressure: 30.41"   Gusts: NA
Location:  39.4975°N, 105.289°W
Report Text: KAPA 310453Z 15012KT 10SM FEW140 06/M03 A3041 RMK AO2 SLP286 T00611033
Loading
Personal Weather Stations






























Interactive Weather Map New forecast layout! Learn more

10-Day Weather Forecast

Advertisements
Track Severe Weather on mobile